Time;durP1;ratioP1;P1;durP2;ratioP2;P2;SDS_P1;SDS_P2;PMS_P1;PMS_P2;Temp;Humidity;BMP_temperature;BMP_pressure;BME280_temperature;BME280_humidity;BME280_pressure;Samples;Min_cycle;Max_cycle;Signal;HPM_P1;HPM_P2
2023/01/15 00:01:00;;;;;;;7.38;2.38;;;8.50;99.90;;;;;;5093571;28;20191;-54
2023/01/15 00:03:25;;;;;;;8.32;1.95;;;8.60;99.90;;;;;;5093630;28;20170;-55
2023/01/15 00:05:51;;;;;;;9.65;2.60;;;8.50;99.90;;;;;;5092561;28;20251;-51
2023/01/15 00:08:17;;;;;;;8.32;2.47;;;8.60;99.90;;;;;;5093534;28;20186;-53
2023/01/15 00:10:42;;;;;;;5.55;2.20;;;8.50;99.90;;;;;;5093293;28;20177;-55
2023/01/15 00:13:08;;;;;;;7.93;2.55;;;8.50;99.90;;;;;;5093497;28;20181;-53
2023/01/15 00:15:35;;;;;;;7.07;2.65;;;8.50;99.90;;;;;;5093327;28;20295;-54
2023/01/15 00:18:01;;;;;;;7.60;2.40;;;8.50;99.90;;;;;;5093148;28;20170;-53
2023/01/15 00:20:26;;;;;;;7.55;2.53;;;8.60;99.90;;;;;;5093462;28;20162;-51
2023/01/15 00:22:52;;;;;;;5.38;2.40;;;8.60;99.90;;;;;;5075274;28;20178;-52
2023/01/15 00:28:02;;;;;;;7.78;2.50;;;8.50;99.90;;;;;;5093493;28;20181;-52
2023/01/15 00:30:28;;;;;;;5.68;2.55;;;8.50;99.90;;;;;;5093108;28;20189;-53
2023/01/15 00:32:54;;;;;;;8.00;2.55;;;8.50;99.90;;;;;;5093068;28;20206;-55
2023/01/15 00:35:22;;;;;;;7.22;2.20;;;8.50;99.90;;;;;;5093396;28;20643;-53
2023/01/15 00:37:48;;;;;;;7.90;2.80;;;8.40;99.90;;;;;;5075542;28;20208;-53
2023/01/15 00:40:15;;;;;;;7.90;2.17;;;8.40;99.90;;;;;;5093089;28;20174;-53
2023/01/15 00:42:40;;;;;;;7.60;2.50;;;8.50;99.90;;;;;;5093132;28;20277;-52
2023/01/15 00:45:09;;;;;;;8.02;2.47;;;8.40;99.90;;;;;;5092899;28;20268;-53
2023/01/15 00:47:39;;;;;;;7.65;2.25;;;8.50;99.90;;;;;;5093060;28;20202;-51
2023/01/15 00:50:07;;;;;;;6.10;2.22;;;8.50;99.90;;;;;;5092948;28;20584;-52
2023/01/15 00:52:33;;;;;;;7.22;2.47;;;8.40;99.90;;;;;;5093177;28;20170;-52
2023/01/15 00:54:59;;;;;;;7.07;2.30;;;8.40;99.90;;;;;;5075001;28;20185;-53
2023/01/15 00:57:25;;;;;;;7.70;2.50;;;8.40;99.90;;;;;;5092994;28;20178;-54
2023/01/15 00:59:50;;;;;;;7.20;2.28;;;8.40;99.90;;;;;;5092747;28;20177;-54
2023/01/15 01:02:16;;;;;;;5.78;2.53;;;8.40;99.90;;;;;;5092843;28;20529;-53
2023/01/15 01:04:42;;;;;;;7.20;2.33;;;8.30;99.90;;;;;;5093012;28;20674;-54
2023/01/15 01:07:07;;;;;;;7.72;2.45;;;8.30;99.90;;;;;;5092782;28;20217;-51
2023/01/15 01:09:33;;;;;;;6.85;2.60;;;8.30;99.90;;;;;;5092784;28;20277;-51
2023/01/15 01:11:59;;;;;;;9.32;2.53;;;8.30;99.90;;;;;;5092703;28;20687;-53
2023/01/15 01:14:25;;;;;;;11.55;2.55;;;8.40;99.90;;;;;;5074522;28;20257;-54
2023/01/15 01:16:51;;;;;;;6.68;2.50;;;8.30;99.90;;;;;;5095471;28;20531;-53
2023/01/15 01:19:22;;;;;;;9.32;2.70;;;8.30;99.90;;;;;;5096496;28;20650;-54
2023/01/15 01:21:49;;;;;;;7.65;2.63;;;8.30;99.90;;;;;;5096630;28;20170;-54
2023/01/15 01:24:17;;;;;;;9.45;2.63;;;8.20;99.90;;;;;;5096345;28;20263;-50
2023/01/15 01:26:44;;;;;;;8.13;2.55;;;8.10;99.90;;;;;;5096191;28;20216;-52
2023/01/15 01:29:15;;;;;;;6.40;2.22;;;8.20;99.90;;;;;;5078262;28;20182;-53
2023/01/15 01:31:41;;;;;;;6.22;2.58;;;8.10;99.90;;;;;;5096653;28;20229;-53
2023/01/15 01:34:09;;;;;;;8.23;2.47;;;8.20;99.90;;;;;;5096279;28;20177;-54
2023/01/15 01:36:36;;;;;;;10.57;2.65;;;8.30;99.90;;;;;;5096109;28;20634;-53
2023/01/15 01:39:04;;;;;;;6.78;2.25;;;8.30;99.90;;;;;;5095995;28;20173;-53
2023/01/15 01:41:30;;;;;;;8.00;2.70;;;8.20;99.90;;;;;;5095968;28;20174;-52
2023/01/15 01:44:07;;;;;;;8.80;2.28;;;8.20;99.90;;;;;;5078056;28;20194;-54
2023/01/15 01:46:34;;;;;;;9.27;2.58;;;8.30;99.90;;;;;;5095867;28;20688;-52
2023/01/15 01:49:08;;;;;;;7.60;2.00;;;8.20;99.90;;;;;;5096025;28;20252;-54
2023/01/15 01:51:45;;;;;;;9.75;2.78;;;8.20;99.90;;;;;;5095937;28;20526;-50
2023/01/15 01:54:15;;;;;;;9.75;2.65;;;8.20;99.90;;;;;;5095769;28;20170;-50
2023/01/15 01:56:41;;;;;;;7.57;2.35;;;8.10;99.90;;;;;;5095915;28;20239;-52
2023/01/15 01:59:07;;;;;;;9.27;2.55;;;8.10;99.90;;;;;;5095647;28;20288;-51
2023/01/15 02:01:34;;;;;;;10.65;2.53;;;8.10;99.90;;;;;;5077818;28;20248;-50
2023/01/15 02:04:00;;;;;;;7.78;2.17;;;8.10;99.90;;;;;;5095605;28;20194;-51
2023/01/15 02:06:27;;;;;;;8.93;2.83;;;8.00;99.90;;;;;;5095434;28;20228;-52
2023/01/15 02:08:53;;;;;;;8.13;2.70;;;8.10;99.90;;;;;;5078010;28;20272;-54
2023/01/15 02:11:22;;;;;;;9.43;2.90;;;8.00;99.90;;;;;;5077609;28;20260;-51
2023/01/15 02:14:06;;;;;;;7.53;2.10;;;8.00;99.90;;;;;;5095531;28;20216;-53
2023/01/15 02:16:56;;;;;;;10.93;2.40;;;8.10;99.90;;;;;;5095390;28;20172;-54
2023/01/15 02:19:43;;;;;;;8.38;2.50;;;8.10;99.90;;;;;;5095317;28;20557;-54
2023/01/15 02:22:23;;;;;;;6.72;2.47;;;8.00;99.90;;;;;;5095205;28;20192;-53
2023/01/15 02:24:55;;;;;;;7.90;2.70;;;8.00;99.90;;;;;;5095323;28;20177;-53
2023/01/15 02:27:23;;;;;;;7.15;2.55;;;8.10;99.90;;;;;;5094307;28;20205;-53
2023/01/15 02:30:07;;;;;;;7.68;2.53;;;8.00;99.90;;;;;;5095345;28;20201;-52
2023/01/15 02:32:42;;;;;;;6.20;2.40;;;7.90;99.90;;;;;;5095173;28;20170;-53
2023/01/15 02:35:15;;;;;;;8.93;2.97;;;7.90;99.90;;;;;;5095161;28;20177;-52
2023/01/15 02:37:47;;;;;;;6.57;1.90;;;7.90;99.90;;;;;;5094962;28;20177;-50
2023/01/15 02:40:14;;;;;;;10.50;2.35;;;7.80;99.90;;;;;;5095001;28;20527;-53
2023/01/15 02:42:41;;;;;;;7.03;2.78;;;7.80;99.90;;;;;;5094908;28;20182;-52
2023/01/15 02:45:09;;;;;;;10.52;2.78;;;7.80;99.90;;;;;;5094939;28;20197;-54
2023/01/15 02:47:38;;;;;;;8.57;2.38;;;7.80;99.90;;;;;;5094730;28;20216;-53
2023/01/15 02:50:09;;;;;;;13.13;2.50;;;7.80;99.90;;;;;;5094690;28;20181;-52
2023/01/15 02:52:46;;;;;;;8.98;2.90;;;7.80;99.90;;;;;;5094723;28;20249;-50
2023/01/15 02:55:18;;;;;;;7.28;2.38;;;7.80;99.90;;;;;;5094885;28;20199;-53
2023/01/15 02:57:46;;;;;;;8.60;2.70;;;7.80;99.90;;;;;;5094555;28;20666;-55
2023/01/15 03:00:15;;;;;;;7.20;2.33;;;7.80;99.90;;;;;;5094448;28;20176;-54
2023/01/15 03:02:54;;;;;;;10.32;2.42;;;7.70;99.90;;;;;;5094381;28;20173;-52
2023/01/15 03:05:27;;;;;;;13.15;2.60;;;7.80;99.90;;;;;;5076333;28;20178;-56
2023/01/15 03:07:56;;;;;;;12.25;2.92;;;7.80;99.90;;;;;;5094370;28;20176;-51
2023/01/15 03:10:47;;;;;;;10.63;2.47;;;7.90;99.90;;;;;;5094500;28;20166;-53
2023/01/15 03:13:42;;;;;;;9.93;2.92;;;7.80;99.90;;;;;;5093265;28;20272;-53
2023/01/15 03:16:39;;;;;;;10.32;2.35;;;7.70;99.90;;;;;;5084947;28;20203;-53
2023/01/15 03:19:10;;;;;;;7.80;2.50;;;7.80;99.90;;;;;;5094104;28;20163;-54
2023/01/15 03:22:00;;;;;;;10.45;2.88;;;7.80;99.90;;;;;;5094153;28;20166;-54
2023/01/15 03:25:02;;;;;;;9.20;2.70;;;7.80;99.90;;;;;;5076073;28;20258;-53
2023/01/15 03:27:28;;;;;;;7.63;2.58;;;7.70;99.90;;;;;;5038192;28;20254;-57
2023/01/15 03:30:06;;;;;;;11.32;3.00;;;7.80;99.90;;;;;;5093830;28;20185;-54
2023/01/15 03:32:32;;;;;;;9.02;2.70;;;7.80;99.90;;;;;;5094067;28;20166;-51
2023/01/15 03:34:59;;;;;;;9.32;3.05;;;7.70;99.90;;;;;;5094298;28;20619;-54
2023/01/15 03:37:26;;;;;;;10.48;2.40;;;7.70;99.90;;;;;;5093874;28;20189;-54
2023/01/15 03:39:54;;;;;;;8.75;2.92;;;7.70;99.90;;;;;;5092829;28;20177;-54
2023/01/15 03:42:31;;;;;;;7.22;2.67;;;7.70;99.90;;;;;;5093592;28;20265;-53
2023/01/15 03:45:12;;;;;;;9.10;2.97;;;7.60;99.90;;;;;;5075713;28;20229;-53
2023/01/15 03:47:44;;;;;;;9.45;2.72;;;7.60;99.90;;;;;;5093704;28;20204;-53
2023/01/15 03:50:34;;;;;;;8.73;2.80;;;7.60;99.90;;;;;;5093671;28;20174;-54
2023/01/15 03:53:10;;;;;;;8.23;2.03;;;7.50;99.90;;;;;;5093672;28;20174;-54
2023/01/15 03:55:36;;;;;;;11.52;2.13;;;7.50;99.90;;;;;;5093954;28;20161;-53
2023/01/15 03:58:25;;;;;;;11.40;3.33;;;7.40;99.90;;;;;;5093643;28;20172;-54
2023/01/15 04:00:58;;;;;;;10.63;2.42;;;7.50;99.90;;;;;;5093507;28;20234;-54
2023/01/15 04:03:26;;;;;;;8.98;2.85;;;7.50;99.90;;;;;;5093445;28;20158;-54
2023/01/15 04:05:55;;;;;;;13.48;2.72;;;7.50;99.90;;;;;;5093559;28;20463;-53
2023/01/15 04:08:23;;;;;;;8.20;2.58;;;7.60;99.90;;;;;;5075442;28;20231;-52
2023/01/15 04:10:57;;;;;;;8.30;2.67;;;7.60;99.90;;;;;;5093465;28;20173;-52
2023/01/15 04:13:23;;;;;;;8.18;2.00;;;7.50;99.90;;;;;;5093811;28;20679;-51
2023/01/15 04:15:49;;;;;;;7.90;2.83;;;7.40;99.90;;;;;;5093331;28;20174;-53
2023/01/15 04:18:15;;;;;;;8.77;2.80;;;7.40;99.90;;;;;;5093527;28;20185;-50
2023/01/15 04:20:41;;;;;;;10.18;1.98;;;7.50;99.90;;;;;;5093348;28;20178;-51
2023/01/15 04:23:06;;;;;;;6.75;2.50;;;7.30;99.90;;;;;;5093405;28;20181;-53
2023/01/15 04:25:32;;;;;;;10.52;2.45;;;7.30;99.90;;;;;;5075100;28;20201;-53
2023/01/15 04:27:58;;;;;;;10.85;2.20;;;7.30;99.90;;;;;;5093211;28;20623;-51
2023/01/15 04:30:24;;;;;;;8.63;2.53;;;7.30;99.90;;;;;;5093065;28;20227;-53
2023/01/15 04:32:50;;;;;;;9.13;2.17;;;7.30;99.90;;;;;;5093303;28;20178;-51
2023/01/15 04:35:17;;;;;;;10.45;2.75;;;7.30;99.90;;;;;;5093519;28;20204;-52
2023/01/15 04:37:42;;;;;;;9.40;2.88;;;7.30;99.90;;;;;;5093204;28;20184;-53
2023/01/15 04:44:05;;;;;;;7.50;2.55;;;7.30;99.90;;;;;;5093015;28;20165;-53
2023/01/15 04:45:39;;;;;;;10.90;2.65;;;7.20;99.90;;;;;;5093293;28;20197;-52
2023/01/15 04:48:05;;;;;;;8.35;2.33;;;7.30;99.90;;;;;;5093034;28;20620;-53
2023/01/15 04:50:31;;;;;;;9.20;2.42;;;7.20;99.90;;;;;;5093655;28;20256;-52
2023/01/15 04:52:56;;;;;;;6.40;2.40;;;7.20;99.90;;;;;;5096782;28;20192;-54
2023/01/15 04:55:22;;;;;;;10.27;2.05;;;7.30;99.90;;;;;;5096856;28;20184;-51
2023/01/15 04:57:51;;;;;;;7.82;2.20;;;7.20;99.90;;;;;;5097086;28;20222;-54
2023/01/15 05:00:17;;;;;;;12.27;2.58;;;7.20;99.90;;;;;;5096930;28;20186;-52
2023/01/15 05:02:43;;;;;;;9.57;2.58;;;7.20;99.90;;;;;;5096747;28;20183;-53
2023/01/15 05:05:09;;;;;;;7.47;2.10;;;7.10;99.90;;;;;;5097011;28;20177;-52
2023/01/15 05:07:34;;;;;;;7.90;2.50;;;7.20;99.90;;;;;;5078654;28;20208;-52
2023/01/15 05:10:00;;;;;;;8.57;2.25;;;7.30;99.90;;;;;;5096568;28;20235;-53
2023/01/15 05:12:26;;;;;;;7.53;2.97;;;7.30;99.90;;;;;;5096642;28;20168;-51
2023/01/15 05:14:51;;;;;;;9.77;1.92;;;7.20;99.90;;;;;;5078495;28;20296;-50
2023/01/15 05:17:17;;;;;;;7.22;1.63;;;7.20;99.90;;;;;;5096630;28;20180;-51
2023/01/15 05:19:43;;;;;;;9.05;2.65;;;7.10;99.90;;;;;;5096539;28;20260;-52
2023/01/15 05:22:09;;;;;;;9.10;2.15;;;7.10;99.90;;;;;;5096481;28;20174;-55
2023/01/15 05:24:35;;;;;;;9.73;2.35;;;7.10;99.90;;;;;;5096225;28;20639;-51
2023/01/15 05:27:01;;;;;;;7.60;1.80;;;7.10;99.90;;;;;;5078366;28;20209;-51
2023/01/15 05:29:27;;;;;;;8.15;2.75;;;7.20;99.90;;;;;;5096375;28;20186;-53
2023/01/15 05:31:53;;;;;;;8.90;2.33;;;7.10;99.90;;;;;;5096180;28;20174;-51
2023/01/15 05:34:18;;;;;;;9.88;2.17;;;7.20;99.90;;;;;;5096239;28;20174;-51
2023/01/15 05:36:44;;;;;;;9.50;2.88;;;7.20;99.90;;;;;;5096161;28;20172;-54
2023/01/15 05:39:10;;;;;;;8.05;1.80;;;7.30;99.90;;;;;;5095994;28;20177;-53
2023/01/15 05:41:48;;;;;;;7.30;1.98;;;7.20;99.90;;;;;;5096009;28;20184;-53
2023/01/15 05:44:15;;;;;;;8.98;1.80;;;7.30;99.90;;;;;;5096109;28;20558;-54
2023/01/15 05:46:43;;;;;;;8.23;2.40;;;7.20;99.90;;;;;;5095912;28;20204;-53
2023/01/15 05:49:12;;;;;;;9.05;1.70;;;7.20;99.90;;;;;;5095882;28;20180;-50
2023/01/15 05:51:38;;;;;;;6.97;1.50;;;7.20;99.90;;;;;;5095783;28;20268;-53
2023/01/15 05:54:06;;;;;;;10.32;1.95;;;7.20;99.90;;;;;;5096016;28;20650;-52
2023/01/15 05:56:34;;;;;;;7.60;1.90;;;7.20;99.90;;;;;;5077802;28;20269;-51
2023/01/15 05:59:00;;;;;;;4.60;1.75;;;7.20;99.90;;;;;;5077985;28;20178;-52
2023/01/15 06:01:25;;;;;;;7.43;2.30;;;7.10;99.90;;;;;;5095850;28;20630;-51
2023/01/15 06:03:53;;;;;;;5.22;1.52;;;7.00;99.90;;;;;;5094654;28;20208;-52
2023/01/15 06:06:19;;;;;;;3.80;1.30;;;7.00;99.90;;;;;;5095477;28;20198;-51
2023/01/15 06:08:45;;;;;;;5.30;2.13;;;6.90;99.90;;;;;;5095551;28;20230;-51
2023/01/15 06:11:11;;;;;;;5.20;1.55;;;6.90;99.90;;;;;;5095692;28;20264;-53
2023/01/15 06:13:38;;;;;;;5.10;1.50;;;6.90;99.90;;;;;;5095506;28;20281;-52
2023/01/15 06:16:05;;;;;;;4.90;1.50;;;6.80;99.90;;;;;;5095373;28;20181;-54
2023/01/15 06:18:32;;;;;;;3.47;1.38;;;6.70;99.90;;;;;;5095324;28;20529;-53
2023/01/15 06:21:03;;;;;;;4.47;1.70;;;6.70;99.90;;;;;;5095460;28;20170;-52
2023/01/15 06:23:29;;;;;;;5.25;1.60;;;6.70;99.90;;;;;;5095384;28;20655;-53
2023/01/15 06:25:59;;;;;;;6.68;1.20;;;6.60;99.90;;;;;;5095151;28;20212;-51
2023/01/15 06:28:25;;;;;;;5.95;1.60;;;6.60;99.90;;;;;;5095125;28;20277;-53
2023/01/15 06:30:50;;;;;;;3.83;1.60;;;6.70;99.90;;;;;;5095174;28;20308;-53
2023/01/15 06:33:16;;;;;;;4.80;1.40;;;6.80;99.90;;;;;;5095024;28;20177;-51
2023/01/15 06:35:42;;;;;;;6.55;1.10;;;6.80;99.90;;;;;;5095003;28;20223;-51
2023/01/15 06:38:07;;;;;;;5.68;1.35;;;6.70;99.90;;;;;;5095009;28;20178;-53
2023/01/15 06:40:33;;;;;;;6.53;1.05;;;6.60;99.90;;;;;;5094927;28;20716;-53
2023/01/15 06:48:27;;;;;;;2.72;1.10;;;6.50;99.90;;;;;;5095060;28;20214;-53
2023/01/15 06:50:53;;;;;;;5.05;1.30;;;6.40;99.90;;;;;;5094750;28;20178;-54
2023/01/15 06:53:22;;;;;;;4.93;1.27;;;6.40;99.90;;;;;;5094729;28;20170;-53
2023/01/15 06:55:48;;;;;;;6.18;1.58;;;6.20;99.90;;;;;;5094572;28;20182;-53
2023/01/15 06:58:13;;;;;;;6.65;1.50;;;6.00;99.90;;;;;;5094483;28;20528;-53
2023/01/15 07:00:41;;;;;;;3.60;1.30;;;5.90;99.90;;;;;;5094623;28;20185;-54
2023/01/15 07:03:08;;;;;;;5.88;1.42;;;6.00;99.90;;;;;;5094520;28;20235;-53
2023/01/15 07:05:36;;;;;;;6.93;1.83;;;6.00;99.90;;;;;;5094481;28;20177;-54
2023/01/15 07:08:02;;;;;;;4.07;1.48;;;6.00;99.90;;;;;;5094449;28;20176;-53
2023/01/15 07:10:27;;;;;;;7.65;2.15;;;6.00;99.90;;;;;;5076221;28;20672;-53
2023/01/15 07:12:53;;;;;;;6.65;1.85;;;5.90;99.90;;;;;;5076187;28;20208;-53
2023/01/15 07:15:19;;;;;;;3.75;1.60;;;5.80;99.90;;;;;;5094034;28;20181;-53
2023/01/15 07:17:44;;;;;;;5.75;1.45;;;5.80;99.90;;;;;;5093690;28;20176;-54
2023/01/15 07:20:11;;;;;;;5.50;1.60;;;5.80;99.90;;;;;;5093827;28;20188;-53
2023/01/15 07:22:36;;;;;;;4.80;1.20;;;5.70;99.90;;;;;;5094015;28;20534;-54
2023/01/15 07:25:02;;;;;;;6.70;1.70;;;5.70;99.90;;;;;;5093963;28;20172;-54
2023/01/15 07:27:28;;;;;;;6.70;2.00;;;5.70;99.90;;;;;;5093779;28;20228;-51
2023/01/15 07:29:53;;;;;;;6.20;1.52;;;5.80;99.90;;;;;;5094023;28;20185;-54
2023/01/15 07:32:19;;;;;;;7.35;1.42;;;5.80;99.90;;;;;;5075795;28;20178;-53
2023/01/15 07:34:45;;;;;;;4.50;1.60;;;5.70;99.90;;;;;;5091190;28;20185;-53
2023/01/15 07:37:11;;;;;;;10.00;1.73;;;5.70;99.90;;;;;;5075453;28;20272;-54
2023/01/15 07:39:36;;;;;;;6.68;1.75;;;5.60;99.90;;;;;;5093406;28;20184;-54
2023/01/15 07:50:21;;;;;;;6.95;1.63;;;5.70;99.90;;;;;;5093610;28;20197;-51
2023/01/15 07:52:47;;;;;;;8.52;2.00;;;5.70;99.90;;;;;;5093148;28;20174;-54
2023/01/15 07:55:13;;;;;;;6.22;1.95;;;5.70;99.90;;;;;;5093224;28;20236;-53
2023/01/15 07:57:40;;;;;;;8.63;1.67;;;5.60;99.90;;;;;;5093315;28;20181;-54
2023/01/15 08:00:08;;;;;;;6.72;1.65;;;5.60;99.90;;;;;;5093269;28;20174;-53
2023/01/15 08:02:34;;;;;;;7.03;2.22;;;5.60;99.90;;;;;;5093076;28;20268;-54
2023/01/15 08:04:59;;;;;;;8.63;2.08;;;5.70;99.90;;;;;;5074325;28;20656;-51
2023/01/15 08:07:25;;;;;;;9.02;2.40;;;5.70;99.90;;;;;;5092958;28;20217;-51
2023/01/15 08:09:51;;;;;;;7.07;2.22;;;5.80;99.90;;;;;;5093277;28;20217;-51
2023/01/15 08:15:13;;;;;;;6.53;2.08;;;5.70;99.90;;;;;;5091395;28;20736;-54
2023/01/15 08:17:41;;;;;;;10.38;2.38;;;5.80;99.90;;;;;;5076211;28;20647;-53
2023/01/15 08:20:19;;;;;;;7.82;2.00;;;5.90;99.90;;;;;;5073571;28;20181;-52
2023/01/15 08:22:45;;;;;;;7.03;2.08;;;5.90;99.90;;;;;;5090034;28;20522;-53
2023/01/15 08:25:14;;;;;;;5.85;1.80;;;5.90;99.90;;;;;;5091101;28;20165;-52
2023/01/15 08:27:40;;;;;;;9.65;1.88;;;6.10;99.90;;;;;;5096025;28;20700;-54
2023/01/15 08:30:10;;;;;;;9.90;2.20;;;6.10;99.90;;;;;;5095936;28;20263;-54
2023/01/15 08:32:36;;;;;;;8.20;1.85;;;6.10;99.90;;;;;;5095855;28;20161;-54
2023/01/15 08:35:02;;;;;;;8.32;2.50;;;6.10;99.90;;;;;;5095666;28;20196;-51
2023/01/15 08:37:27;;;;;;;8.98;2.05;;;6.10;99.90;;;;;;5096900;28;20181;-54
2023/01/15 08:39:53;;;;;;;9.23;2.65;;;6.20;99.90;;;;;;5097228;28;20209;-52
2023/01/15 08:42:20;;;;;;;7.10;2.10;;;6.30;99.90;;;;;;5096987;28;20265;-50
2023/01/15 08:44:46;;;;;;;9.57;1.88;;;6.30;99.90;;;;;;5097331;28;20197;-51
2023/01/15 08:47:12;;;;;;;9.15;1.80;;;6.40;99.90;;;;;;5097176;28;20210;-52
2023/01/15 08:49:38;;;;;;;8.75;2.35;;;6.40;99.90;;;;;;5096922;28;20651;-54
2023/01/15 08:52:04;;;;;;;9.77;2.13;;;6.60;99.90;;;;;;5078948;28;20177;-53
2023/01/15 08:54:29;;;;;;;9.77;2.00;;;6.60;99.90;;;;;;5096727;28;20631;-52
2023/01/15 08:56:55;;;;;;;8.13;1.98;;;6.60;99.90;;;;;;5096704;28;20189;-53
2023/01/15 08:59:21;;;;;;;7.43;2.20;;;6.80;99.90;;;;;;5096822;28;20172;-54
2023/01/15 09:01:47;;;;;;;7.18;2.00;;;6.90;99.90;;;;;;5096800;28;20184;-55
2023/01/15 09:04:17;;;;;;;5.28;2.05;;;7.10;99.90;;;;;;5096906;28;20170;-53
2023/01/15 09:06:44;;;;;;;6.68;2.25;;;7.30;99.90;;;;;;5096690;28;20204;-54
2023/01/15 09:09:11;;;;;;;8.27;2.65;;;7.40;99.90;;;;;;5096715;28;20205;-55
2023/01/15 09:11:41;;;;;;;9.07;2.33;;;7.50;99.90;;;;;;5096500;28;20177;-52
2023/01/15 09:14:08;;;;;;;8.02;2.40;;;7.50;99.90;;;;;;5096814;28;20260;-53
2023/01/15 09:16:35;;;;;;;6.00;2.15;;;7.50;99.90;;;;;;5096459;28;20189;-51
2023/01/15 09:19:01;;;;;;;7.35;2.05;;;7.50;99.90;;;;;;5096653;28;20227;-54
2023/01/15 09:21:27;;;;;;;7.57;2.42;;;7.30;99.90;;;;;;5096308;28;20181;-51
2023/01/15 09:23:52;;;;;;;12.00;2.70;;;7.50;99.90;;;;;;5096435;28;20247;-53
2023/01/15 09:26:33;;;;;;;7.13;2.70;;;7.60;99.90;;;;;;5078038;28;20242;-51
2023/01/15 09:28:59;;;;;;;6.30;2.10;;;7.50;99.90;;;;;;5096449;28;20166;-53
2023/01/15 09:31:25;;;;;;;6.72;2.40;;;7.40;99.90;;;;;;5096295;28;20174;-51
2023/01/15 09:33:51;;;;;;;11.95;2.90;;;7.30;99.90;;;;;;5096265;28;20526;-54
2023/01/15 09:36:25;;;;;;;7.68;2.50;;;7.20;99.90;;;;;;5096104;28;20177;-53
2023/01/15 09:38:50;;;;;;;12.45;2.53;;;7.30;99.90;;;;;;5096077;28;20230;-56
2023/01/15 09:44:30;;;;;;;5.53;1.80;;;7.50;99.90;;;;;;5096572;28;20554;-53
2023/01/15 09:47:19;;;;;;;5.38;1.60;;;7.40;99.90;;;;;;5095850;28;20202;-53
2023/01/15 09:49:47;;;;;;;5.70;1.65;;;7.40;99.90;;;;;;5096003;28;20178;-54
2023/01/15 09:52:35;;;;;;;7.75;2.10;;;7.40;99.90;;;;;;5094969;28;20174;-54
2023/01/15 09:55:10;;;;;;;7.97;1.60;;;7.30;99.90;;;;;;5095215;28;20190;-54
2023/01/15 09:57:36;;;;;;;4.75;2.00;;;7.20;99.90;;;;;;5096049;28;20181;-54
2023/01/15 10:00:05;;;;;;;9.77;1.88;;;7.10;99.90;;;;;;5095802;28;20227;-54
2023/01/15 10:02:40;;;;;;;7.20;2.35;;;7.20;99.90;;;;;;5095531;28;20177;-54
2023/01/15 10:05:10;;;;;;;7.40;1.55;;;7.30;99.90;;;;;;5095149;28;20253;-54
2023/01/15 10:07:48;;;;;;;6.00;1.23;;;7.30;99.90;;;;;;5095376;28;20208;-53
2023/01/15 10:10:18;;;;;;;4.40;1.10;;;7.30;99.90;;;;;;5095774;28;20200;-54
2023/01/15 10:12:47;;;;;;;5.78;1.30;;;7.10;99.90;;;;;;5095635;28;20178;-56
2023/01/15 10:15:13;;;;;;;4.10;1.33;;;7.10;99.90;;;;;;5095475;28;20256;-54
2023/01/15 10:17:44;;;;;;;5.53;1.50;;;7.10;99.90;;;;;;5095427;28;20253;-55
2023/01/15 10:20:33;;;;;;;3.85;1.75;;;7.10;99.90;;;;;;5095329;28;20201;-55
2023/01/15 10:23:17;;;;;;;2.65;1.13;;;7.10;99.90;;;;;;5095395;28;20265;-54
2023/01/15 10:25:49;;;;;;;3.60;1.17;;;7.10;99.90;;;;;;5095210;28;20205;-54
2023/01/15 10:28:39;;;;;;;3.42;1.08;;;7.10;99.90;;;;;;5095076;28;20250;-54
2023/01/15 10:31:17;;;;;;;3.95;1.00;;;7.00;99.90;;;;;;5095128;28;20169;-55
2023/01/15 10:33:49;;;;;;;4.47;0.90;;;7.10;99.90;;;;;;5095201;28;20177;-55
2023/01/15 10:36:47;;;;;;;6.10;1.15;;;7.20;99.90;;;;;;5094934;28;20212;-54
2023/01/15 10:39:38;;;;;;;4.18;1.10;;;7.30;99.90;;;;;;5073027;28;20197;-56
2023/01/15 10:42:15;;;;;;;2.92;1.10;;;7.30;99.90;;;;;;5094971;28;20170;-53
2023/01/15 10:44:50;;;;;;;3.20;1.35;;;7.30;99.90;;;;;;5093252;28;20197;-54
2023/01/15 10:47:20;;;;;;;6.63;1.50;;;7.50;99.90;;;;;;5093031;28;20740;-54
2023/01/15 10:49:49;;;;;;;3.20;1.27;;;7.50;99.90;;;;;;5093894;28;20269;-54
2023/01/15 10:52:22;;;;;;;3.63;1.08;;;7.60;99.90;;;;;;5094843;28;20173;-54
2023/01/15 10:55:00;;;;;;;5.28;1.20;;;7.50;99.90;;;;;;5094511;28;20177;-52
2023/01/15 10:57:40;;;;;;;5.38;1.63;;;7.50;99.90;;;;;;5094309;28;20229;-53
2023/01/15 11:00:09;;;;;;;3.28;1.27;;;7.40;99.90;;;;;;5094243;28;20173;-54
2023/01/15 11:02:43;;;;;;;4.03;1.25;;;7.50;99.90;;;;;;5076108;28;20176;-54
2023/01/15 11:05:20;;;;;;;4.43;1.35;;;7.50;99.90;;;;;;5094237;28;20174;-56
2023/01/15 11:07:48;;;;;;;5.00;1.30;;;7.40;99.90;;;;;;5093872;28;20206;-55
2023/01/15 11:10:18;;;;;;;6.47;1.67;;;7.40;99.90;;;;;;5075994;28;20241;-54
2023/01/15 11:21:21;;;;;;;3.58;1.30;;;7.40;99.90;;;;;;5094331;28;20587;-55
2023/01/15 11:23:47;;;;;;;9.15;1.60;;;7.60;99.90;;;;;;5094458;28;20526;-54
2023/01/15 11:26:23;;;;;;;6.38;1.60;;;7.90;99.90;;;;;;5093680;28;20546;-54
2023/01/15 11:28:49;;;;;;;4.25;1.27;;;8.20;99.90;;;;;;5093986;28;20307;-54
2023/01/15 11:31:16;;;;;;;3.85;1.88;;;8.40;99.90;;;;;;5092333;28;20648;-53
2023/01/15 11:33:54;;;;;;;5.53;1.65;;;8.60;99.90;;;;;;5094022;28;20176;-53
2023/01/15 11:36:26;;;;;;;4.95;1.70;;;8.60;99.90;;;;;;5093935;28;20180;-55
2023/01/15 11:38:52;;;;;;;3.67;1.63;;;8.60;99.90;;;;;;5093651;28;20177;-54
2023/01/15 11:52:45;;;;;;;4.35;1.52;;;8.40;99.90;;;;;;5093929;28;20669;-54
2023/01/15 11:55:28;;;;;;;3.30;1.80;;;8.40;99.90;;;;;;5093515;28;20184;-54
2023/01/15 11:57:56;;;;;;;5.03;2.58;;;8.20;99.90;;;;;;5093730;28;20178;-54
2023/01/15 12:00:24;;;;;;;5.75;2.17;;;8.10;99.90;;;;;;5092866;28;20234;-53
2023/01/15 12:02:55;;;;;;;5.00;2.33;;;8.30;99.90;;;;;;5093631;28;20638;-55
2023/01/15 12:05:24;;;;;;;3.75;2.05;;;8.30;99.90;;;;;;5093559;28;20634;-54
2023/01/15 12:07:54;;;;;;;4.45;1.77;;;8.10;99.90;;;;;;5093457;28;20270;-53
2023/01/15 12:11:02;;;;;;;4.03;1.90;;;8.20;99.90;;;;;;5093328;28;20181;-56
2023/01/15 12:14:07;;;;;;;4.82;2.00;;;8.40;99.90;;;;;;5093488;28;20182;-54
2023/01/15 12:16:40;;;;;;;5.25;1.65;;;8.50;99.90;;;;;;5093407;28;20207;-56
2023/01/15 12:19:05;;;;;;;4.05;1.50;;;8.60;99.90;;;;;;5093371;28;20627;-55
2023/01/15 12:21:40;;;;;;;4.45;1.85;;;8.50;99.90;;;;;;5093723;28;20223;-55
2023/01/15 12:24:21;;;;;;;3.40;1.63;;;8.50;99.90;;;;;;5093640;28;20170;-55
2023/01/15 12:27:01;;;;;;;6.65;1.80;;;8.60;99.90;;;;;;5093180;28;20317;-54
2023/01/15 12:29:42;;;;;;;5.43;1.58;;;8.60;99.90;;;;;;5093177;28;20174;-54
2023/01/15 12:32:22;;;;;;;6.20;2.03;;;8.60;99.90;;;;;;5093526;28;20162;-54
2023/01/15 12:34:54;;;;;;;5.88;2.00;;;8.60;99.90;;;;;;5093196;28;20284;-55
2023/01/15 12:37:25;;;;;;;4.60;1.58;;;8.60;99.90;;;;;;5093133;28;20579;-55
2023/01/15 12:39:59;;;;;;;4.93;2.00;;;8.60;99.90;;;;;;5093087;28;20161;-55
2023/01/15 12:45:20;;;;;;;4.65;1.90;;;8.40;99.90;;;;;;5093288;28;20250;-55
2023/01/15 12:48:02;;;;;;;5.60;2.20;;;8.30;99.90;;;;;;5092962;28;20701;-56
2023/01/15 12:50:43;;;;;;;5.72;1.75;;;8.20;99.90;;;;;;5093069;28;20174;-55
2023/01/15 12:53:40;;;;;;;4.00;1.80;;;8.20;99.90;;;;;;5093120;28;20205;-54
2023/01/15 12:56:28;;;;;;;5.18;2.13;;;8.30;99.90;;;;;;5092908;28;20635;-54
2023/01/15 12:59:28;;;;;;;4.95;1.65;;;8.20;99.90;;;;;;5092954;28;20166;-55
2023/01/15 13:02:28;;;;;;;4.20;1.50;;;8.30;99.90;;;;;;5093041;28;20169;-54
2023/01/15 13:05:15;;;;;;;5.70;2.05;;;8.40;99.90;;;;;;5092887;28;20184;-55
2023/01/15 13:08:03;;;;;;;5.25;1.88;;;8.50;99.90;;;;;;5093021;28;20200;-55
2023/01/15 13:10:34;;;;;;;3.97;1.50;;;8.50;99.90;;;;;;5092884;28;20205;-54
2023/01/15 13:13:27;;;;;;;4.10;1.40;;;8.50;99.90;;;;;;5077456;28;20635;-55
2023/01/15 13:16:17;;;;;;;5.32;1.50;;;8.60;99.90;;;;;;5096846;28;20166;-53
2023/01/15 13:18:53;;;;;;;8.35;1.80;;;8.60;99.90;;;;;;5096647;28;20173;-55
2023/01/15 13:21:20;;;;;;;5.05;2.00;;;8.60;99.90;;;;;;5096824;28;20580;-54
2023/01/15 13:23:52;;;;;;;5.38;1.70;;;8.60;99.90;;;;;;5096387;28;20192;-55
2023/01/15 13:26:40;;;;;;;5.70;2.00;;;8.60;99.90;;;;;;5096484;28;20209;-55
2023/01/15 13:29:50;;;;;;;3.78;1.45;;;8.60;99.90;;;;;;5096426;28;20630;-54
2023/01/15 13:32:31;;;;;;;3.85;1.75;;;8.50;99.90;;;;;;5096828;28;20165;-55
2023/01/15 13:35:00;;;;;;;7.35;1.70;;;8.60;99.90;;;;;;5096341;28;20177;-54
2023/01/15 13:37:33;;;;;;;4.57;1.73;;;8.60;99.90;;;;;;5078430;28;20185;-55
2023/01/15 13:40:26;;;;;;;2.47;1.50;;;8.60;99.90;;;;;;5096219;28;20177;-55
2023/01/15 13:42:53;;;;;;;2.83;1.40;;;8.80;99.90;;;;;;5078206;28;20714;-58
2023/01/15 13:45:26;;;;;;;3.85;1.15;;;8.80;99.90;;;;;;5078128;28;20200;-55
2023/01/15 13:47:58;;;;;;;4.07;1.40;;;8.70;99.90;;;;;;5096006;28;20193;-55
2023/01/15 13:50:31;;;;;;;3.42;1.40;;;8.80;99.90;;;;;;5096173;28;20248;-56
2023/01/15 13:53:30;;;;;;;2.95;1.25;;;8.60;99.90;;;;;;5095970;28;20172;-57
2023/01/15 13:56:27;;;;;;;2.25;1.20;;;8.50;99.90;;;;;;5096014;28;20176;-56
2023/01/15 13:59:04;;;;;;;2.55;1.20;;;8.50;99.90;;;;;;5095978;28;20171;-54
2023/01/15 14:01:30;;;;;;;3.28;1.20;;;8.50;99.90;;;;;;5096047;28;20184;-55
2023/01/15 14:04:06;;;;;;;2.63;1.33;;;8.60;99.90;;;;;;5095792;28;20531;-56